createdAt,value
2022-08-17T00:00:43.956Z,17.97
2022-08-17T00:01:22.516Z,17.92
2022-08-17T00:03:37.819Z,17.88
2022-08-17T00:05:53.497Z,17.84
2022-08-17T00:08:09.018Z,17.78
2022-08-17T00:10:27.096Z,17.74
2022-08-17T00:12:43.284Z,17.71
2022-08-17T00:14:54.781Z,17.70
2022-08-17T00:17:12.892Z,17.66
2022-08-17T00:19:27.453Z,17.69
2022-08-17T00:22:32.857Z,17.66
2022-08-17T00:22:46.549Z,17.66
2022-08-17T00:25:01.228Z,17.66
2022-08-17T00:27:19.211Z,17.66
2022-08-17T00:29:37.331Z,17.66
2022-08-17T00:31:55.417Z,17.67
2022-08-17T00:34:09.072Z,17.66
2022-08-17T00:36:24.645Z,17.62
2022-08-17T00:38:40.252Z,17.57
2022-08-17T00:40:59.495Z,17.53
2022-08-17T00:43:13.931Z,17.50
2022-08-17T00:45:29.525Z,17.47
2022-08-17T00:47:45.133Z,17.43
2022-08-17T00:49:57.201Z,17.40
2022-08-17T00:52:10.853Z,17.36
2022-08-17T00:54:21.396Z,17.35
2022-08-17T00:56:35.970Z,17.36
2022-08-17T00:58:48.019Z,17.36
2022-08-17T01:01:03.638Z,17.38
2022-08-17T01:03:21.714Z,17.38
2022-08-17T01:05:35.334Z,17.35
2022-08-17T01:07:47.469Z,17.32
2022-08-17T01:10:00.993Z,17.29
2022-08-17T01:12:14.092Z,17.25
2022-08-17T01:14:32.162Z,17.22
2022-08-17T01:16:44.539Z,17.18
2022-08-17T01:18:56.405Z,17.18
2022-08-17T01:21:09.986Z,17.17
2022-08-17T01:23:25.566Z,17.20
2022-08-17T01:25:44.490Z,17.17
2022-08-17T01:27:57.237Z,17.15
2022-08-17T01:30:56.861Z,17.11
2022-08-17T01:31:10.314Z,17.07
2022-08-17T01:33:22.975Z,17.03
2022-08-17T01:35:40.982Z,17.00
2022-08-17T01:37:59.363Z,17.03
2022-08-17T01:40:13.970Z,16.98
2022-08-17T01:42:26.548Z,16.95
2022-08-17T01:44:44.626Z,16.98
2022-08-17T01:46:56.796Z,16.98
2022-08-17T01:49:10.621Z,16.98
2022-08-17T01:51:23.437Z,16.98
2022-08-17T01:53:35.288Z,16.95
2022-08-17T01:55:53.407Z,16.93
2022-08-17T01:58:07.052Z,16.92
2022-08-17T02:00:20.583Z,16.88
2022-08-17T02:02:32.705Z,16.89
2022-08-17T02:04:53.264Z,16.88
2022-08-17T02:07:06.851Z,16.85
2022-08-17T02:09:25.330Z,16.83
2022-08-17T02:11:35.528Z,16.83
2022-08-17T02:13:49.197Z,16.81
2022-08-17T02:16:03.228Z,16.81
2022-08-17T02:18:18.346Z,16.83
2022-08-17T02:20:41.636Z,16.81
2022-08-17T02:22:50.091Z,16.80
2022-08-17T02:25:08.084Z,16.77
2022-08-17T02:27:26.495Z,16.75
2022-08-17T02:29:42.131Z,16.73
2022-08-17T02:31:58.726Z,16.68
2022-08-17T02:34:15.281Z,16.67
2022-08-17T02:36:28.394Z,16.65
2022-08-17T02:38:41.440Z,16.63
2022-08-17T02:41:02.024Z,16.63
2022-08-17T02:43:15.652Z,16.62
2022-08-17T02:45:31.234Z,16.63
2022-08-17T02:47:47.128Z,16.60
2022-08-17T02:50:03.700Z,16.59
2022-08-17T02:52:19.287Z,16.58
2022-08-17T02:53:20.309Z,16.53
2022-08-17T02:55:35.869Z,16.50
2022-08-17T02:57:57.283Z,16.48
2022-08-17T03:00:12.085Z,16.42
2022-08-17T03:02:25.649Z,16.38
2022-08-17T03:04:37.757Z,16.35
2022-08-17T03:06:51.320Z,16.37
2022-08-17T03:09:07.876Z,16.35
2022-08-17T03:11:20.033Z,16.35
2022-08-17T03:13:33.547Z,16.34
2022-08-17T03:15:45.632Z,16.31
2022-08-17T03:18:02.219Z,16.31
2022-08-17T03:20:20.311Z,16.27
2022-08-17T03:22:38.553Z,16.27
2022-08-17T03:24:56.475Z,16.25
2022-08-17T03:27:14.563Z,16.26
2022-08-17T03:29:30.223Z,16.26
2022-08-17T03:31:45.782Z,16.26
2022-08-17T03:34:03.910Z,16.27
2022-08-17T03:36:18.488Z,16.25
2022-08-17T03:38:39.417Z,16.25
2022-08-17T03:40:57.891Z,16.20
2022-08-17T03:41:45.154Z,16.16
2022-08-17T03:43:57.706Z,16.14
2022-08-17T03:46:11.031Z,16.14
2022-08-17T03:47:10.790Z,16.11
2022-08-17T03:49:27.870Z,16.11
2022-08-17T03:51:45.955Z,16.11
2022-08-17T03:53:58.150Z,16.14
2022-08-17T03:56:16.157Z,16.16
2022-08-17T03:58:34.234Z,16.16
2022-08-17T04:00:52.325Z,16.15
2022-08-17T04:03:10.711Z,16.12
2022-08-17T04:05:28.803Z,16.11
2022-08-17T04:07:46.904Z,16.14
2022-08-17T04:10:02.512Z,16.16
2022-08-17T04:12:20.564Z,16.18
2022-08-17T04:14:34.148Z,16.20
2022-08-17T04:16:46.247Z,16.22
2022-08-17T04:19:06.850Z,16.20
2022-08-17T04:21:24.929Z,16.26
2022-08-17T04:23:43.017Z,16.27
2022-08-17T04:25:58.641Z,16.31
2022-08-17T04:28:16.718Z,16.33
2022-08-17T04:30:28.896Z,16.37
2022-08-17T04:33:00.858Z,16.44
2022-08-17T04:33:47.870Z,16.44
2022-08-17T04:36:01.021Z,16.52
2022-08-17T04:38:12.577Z,16.58
2022-08-17T04:40:28.154Z,16.60
2022-08-17T04:42:40.506Z,16.60
2022-08-17T04:44:52.341Z,16.65
2022-08-17T04:47:05.436Z,16.71
2022-08-17T04:49:21.001Z,16.80
2022-08-17T04:51:36.570Z,16.83
2022-08-17T04:53:54.354Z,16.89
2022-08-17T04:56:11.634Z,16.93
2022-08-17T04:58:20.868Z,17.00
2022-08-17T05:00:38.925Z,17.06
2022-08-17T05:02:53.762Z,17.11
2022-08-17T05:06:23.053Z,17.20
2022-08-17T05:08:38.611Z,17.29
2022-08-17T05:10:56.715Z,17.38
2022-08-17T05:13:12.283Z,17.44
2022-08-17T05:15:33.166Z,17.50
2022-08-17T05:17:50.989Z,17.55
2022-08-17T05:20:23.435Z,17.63
2022-08-17T05:22:40.519Z,17.78
2022-08-17T05:25:37.431Z,18.02
2022-08-17T05:27:50.015Z,18.18
2022-08-17T05:30:08.168Z,18.36
2022-08-17T05:32:38.581Z,18.49
2022-08-17T05:34:41.901Z,18.59
2022-08-17T05:36:55.496Z,18.76
2022-08-17T05:39:15.942Z,18.97
2022-08-17T05:41:34.173Z,19.11
2022-08-17T05:43:54.309Z,19.25
2022-08-17T05:47:04.567Z,19.61
2022-08-17T05:53:24.748Z,20.53
2022-08-17T05:56:42.179Z,20.74
2022-08-17T05:58:56.098Z,20.77
2022-08-17T06:01:12.422Z,20.86
2022-08-17T06:03:28.969Z,20.98
2022-08-17T06:05:49.562Z,21.17
2022-08-17T06:08:05.718Z,21.41
2022-08-17T06:10:23.273Z,21.66
2022-08-17T06:12:38.832Z,21.85
2022-08-17T06:14:59.924Z,22.13
2022-08-17T06:17:18.014Z,22.37
2022-08-17T06:19:33.598Z,22.53
2022-08-17T06:21:50.207Z,22.68
2022-08-17T06:24:05.757Z,22.83
2022-08-17T06:26:27.564Z,23.05
2022-08-17T06:27:24.882Z,23.15
2022-08-17T06:29:41.944Z,23.34
2022-08-17T06:32:00.097Z,23.52
2022-08-17T06:34:20.692Z,23.62
2022-08-17T06:36:41.285Z,23.86
2022-08-17T06:39:00.366Z,23.98
2022-08-17T06:41:20.947Z,24.10
2022-08-17T06:43:39.069Z,24.22
2022-08-17T06:49:55.581Z,24.67
2022-08-17T06:53:42.730Z,24.94
2022-08-17T06:57:12.188Z,25.16
2022-08-17T06:59:54.814Z,25.25
2022-08-17T07:07:09.389Z,25.98
2022-08-17T07:16:19.812Z,26.37
2022-08-17T07:20:49.725Z,26.61
2022-08-17T07:23:09.928Z,26.76
2022-08-17T07:27:25.869Z,26.74
2022-08-17T07:31:25.587Z,26.91
2022-08-17T07:35:05.123Z,27.02
2022-08-17T07:44:32.295Z,27.36
2022-08-17T07:50:40.120Z,27.71
2022-08-17T07:54:35.523Z,27.88
2022-08-17T07:56:54.741Z,27.92
2022-08-17T08:03:00.613Z,28.07
2022-08-17T08:11:29.976Z,27.95
2022-08-17T08:13:48.869Z,28.09
2022-08-17T08:24:31.233Z,28.40
2022-08-17T08:28:10.164Z,28.63
2022-08-17T08:30:27.965Z,28.73
2022-08-17T08:33:48.763Z,28.82
2022-08-17T08:37:25.129Z,28.90
2022-08-17T08:38:19.184Z,28.95
2022-08-17T08:40:33.810Z,29.07
2022-08-17T08:42:54.360Z,29.22
2022-08-17T08:45:09.960Z,29.25
2022-08-17T08:47:25.563Z,29.26
2022-08-17T08:50:03.589Z,29.38
2022-08-17T08:51:59.553Z,29.44
2022-08-17T08:54:15.167Z,29.70
2022-08-17T08:56:35.751Z,29.94
2022-08-17T08:58:51.316Z,29.93
2022-08-17T09:01:17.103Z,30.07
2022-08-17T09:03:51.754Z,30.33
2022-08-17T09:04:40.691Z,30.38
2022-08-17T09:06:50.585Z,30.40
2022-08-17T09:09:08.673Z,30.37
2022-08-17T09:11:24.297Z,30.53
2022-08-17T09:13:44.869Z,30.72
2022-08-17T09:16:02.941Z,30.98
2022-08-17T09:19:00.773Z,31.15
2022-08-17T09:20:44.272Z,31.27
2022-08-17T09:22:58.211Z,31.35
2022-08-17T09:25:18.802Z,31.31
2022-08-17T09:27:39.430Z,30.98
2022-08-17T09:30:00.003Z,31.28
2022-08-17T09:32:20.615Z,31.40
2022-08-17T09:34:35.261Z,31.50
2022-08-17T09:36:53.341Z,31.33
2022-08-17T09:39:11.386Z,31.76
2022-08-17T09:41:29.549Z,32.06
2022-08-17T09:43:46.257Z,32.29
2022-08-17T09:44:47.027Z,32.30
2022-08-17T09:47:06.643Z,32.14
2022-08-17T09:49:25.257Z,32.15
2022-08-17T09:53:12.574Z,32.03
2022-08-17T09:55:28.149Z,31.93
2022-08-17T09:57:46.251Z,31.65
2022-08-17T10:01:55.658Z,31.87
2022-08-17T10:04:13.999Z,31.77
2022-08-17T10:06:31.678Z,32.11
2022-08-17T10:08:51.087Z,32.59
2022-08-17T10:11:05.675Z,32.49
2022-08-17T10:13:23.170Z,32.55
2022-08-17T10:15:42.677Z,32.84
2022-08-17T10:18:04.888Z,33.13
2022-08-17T10:20:22.156Z,33.52
2022-08-17T10:22:43.234Z,33.82
2022-08-17T10:25:54.996Z,33.45
2022-08-17T10:28:01.109Z,33.15
2022-08-17T10:33:25.783Z,33.39
2022-08-17T10:35:39.372Z,32.57
2022-08-17T10:37:53.079Z,32.84
2022-08-17T10:40:08.676Z,33.29
2022-08-17T10:42:30.357Z,33.52
2022-08-17T10:44:41.514Z,33.67
2022-08-17T10:46:53.285Z,33.97
2022-08-17T10:49:08.869Z,33.53
2022-08-17T10:51:26.935Z,33.29
2022-08-17T10:53:40.549Z,33.17
2022-08-17T10:55:53.596Z,32.66
2022-08-17T10:58:09.210Z,31.93
2022-08-17T11:00:27.424Z,31.62
2022-08-17T11:02:38.361Z,31.21
2022-08-17T11:04:51.445Z,31.95
2022-08-17T11:07:07.969Z,32.58
2022-08-17T11:09:22.595Z,32.95
2022-08-17T11:11:36.200Z,33.14
2022-08-17T11:13:49.772Z,32.80
2022-08-17T11:16:08.396Z,32.37
2022-08-17T11:18:20.961Z,31.92
2022-08-17T11:20:39.039Z,31.93
2022-08-17T11:22:56.342Z,32.21
2022-08-17T11:26:25.385Z,31.64
2022-08-17T11:28:39.056Z,31.91
2022-08-17T11:30:57.073Z,32.47
2022-08-17T11:33:13.201Z,32.92
2022-08-17T11:35:33.793Z,33.08
2022-08-17T11:37:54.414Z,33.41
2022-08-17T11:40:13.009Z,33.80
2022-08-17T11:42:28.543Z,33.22
2022-08-17T11:44:47.124Z,32.80
2022-08-17T11:48:52.518Z,33.07
2022-08-17T11:51:12.842Z,33.04
2022-08-17T11:53:33.441Z,32.69
2022-08-17T11:55:47.091Z,32.32
2022-08-17T11:58:07.728Z,32.10
2022-08-17T12:00:38.290Z,31.88
2022-08-17T12:04:38.109Z,31.99
2022-08-17T12:10:29.503Z,31.93
2022-08-17T12:13:57.820Z,31.98
2022-08-17T12:16:15.826Z,32.02
2022-08-17T12:18:36.427Z,31.77
2022-08-17T12:30:37.146Z,31.85
2022-08-17T12:32:51.690Z,31.76
2022-08-17T12:37:30.208Z,31.50
2022-08-17T12:39:41.998Z,31.21
2022-08-17T12:42:03.003Z,31.27
2022-08-17T12:44:18.129Z,31.60
2022-08-17T12:46:36.252Z,31.72
2022-08-17T12:48:55.104Z,32.10
2022-08-17T12:51:06.409Z,32.37
2022-08-17T12:53:24.495Z,32.59
2022-08-17T12:55:45.099Z,32.66
2022-08-17T12:58:08.092Z,32.58
2022-08-17T13:00:17.793Z,32.59
2022-08-17T13:02:30.846Z,32.59
2022-08-17T13:04:44.510Z,32.29
2022-08-17T13:06:59.837Z,32.33
2022-08-17T13:09:10.083Z,32.61
2022-08-17T13:11:23.727Z,32.81
2022-08-17T13:13:39.298Z,32.93
2022-08-17T13:15:53.159Z,32.91
2022-08-17T13:18:06.423Z,32.64
2022-08-17T13:20:20.057Z,32.37
2022-08-17T13:22:32.144Z,32.43
2022-08-17T13:24:45.218Z,32.49
2022-08-17T13:26:57.334Z,32.59
2022-08-17T13:29:10.887Z,32.88
2022-08-17T13:31:25.461Z,32.88
2022-08-17T13:33:44.944Z,32.76
2022-08-17T13:35:53.155Z,32.61
2022-08-17T13:38:05.443Z,32.71
2022-08-17T13:40:18.939Z,32.96
2022-08-17T13:42:34.405Z,32.62
2022-08-17T13:44:50.001Z,32.15
2022-08-17T13:47:06.082Z,32.15
2022-08-17T13:49:15.702Z,32.13
2022-08-17T13:52:48.835Z,32.22
2022-08-17T13:55:00.779Z,32.35
2022-08-17T13:57:12.843Z,32.33
2022-08-17T13:59:53.298Z,32.36
2022-08-17T14:00:27.455Z,32.30
2022-08-17T14:02:42.014Z,32.13
2022-08-17T14:04:57.608Z,32.02
2022-08-17T14:07:09.716Z,31.92
2022-08-17T14:09:23.307Z,31.84
2022-08-17T14:11:36.893Z,31.88
2022-08-17T14:13:52.461Z,31.91
2022-08-17T14:16:04.538Z,32.11
2022-08-17T14:18:18.117Z,32.24
2022-08-17T14:19:19.087Z,32.33
2022-08-17T14:21:30.217Z,32.64
2022-08-17T14:23:54.285Z,32.76
2022-08-17T14:26:01.388Z,32.95
2022-08-17T14:28:14.997Z,32.98
2022-08-17T14:30:30.562Z,32.79
2022-08-17T14:32:42.630Z,32.58
2022-08-17T14:34:58.208Z,32.67
2022-08-17T14:37:11.838Z,32.59
2022-08-17T14:39:25.492Z,32.61
2022-08-17T14:41:41.000Z,32.62
2022-08-17T14:43:53.118Z,32.43
2022-08-17T14:46:07.722Z,32.49
2022-08-17T14:48:21.298Z,32.52
2022-08-17T14:50:35.825Z,32.54
2022-08-17T14:52:47.952Z,32.43
2022-08-17T14:55:00.034Z,32.48
2022-08-17T14:57:24.848Z,32.43
2022-08-17T14:58:13.093Z,32.43
2022-08-17T15:00:25.678Z,32.25
2022-08-17T15:02:37.761Z,32.52
2022-08-17T15:04:51.344Z,32.84
2022-08-17T15:07:04.964Z,33.06
2022-08-17T15:09:18.048Z,33.07
2022-08-17T15:11:33.577Z,32.93
2022-08-17T15:13:52.206Z,32.91
2022-08-17T15:16:00.234Z,32.55
2022-08-17T15:32:40.376Z,33.22
2022-08-17T15:34:52.370Z,33.13
2022-08-17T15:37:07.892Z,33.03
2022-08-17T15:39:21.564Z,32.79
2022-08-17T15:41:58.067Z,32.55
2022-08-17T15:44:00.398Z,32.44
2022-08-17T15:46:12.318Z,32.29
2022-08-17T15:48:27.919Z,32.10
2022-08-17T15:50:43.486Z,32.06
2022-08-17T15:52:57.663Z,32.43
2022-08-17T15:55:12.678Z,33.43
2022-08-17T15:57:28.243Z,33.78
2022-08-17T15:59:41.344Z,33.94
2022-08-17T16:03:01.742Z,33.19
2022-08-17T16:03:13.446Z,32.93
2022-08-17T16:04:04.392Z,32.64
2022-08-17T16:07:26.724Z,31.84
2022-08-17T16:09:42.468Z,31.39
2022-08-17T16:11:57.121Z,31.17
2022-08-17T16:14:32.533Z,31.08
2022-08-17T16:16:29.818Z,31.08
2022-08-17T16:18:45.292Z,30.93
2022-08-17T16:21:00.883Z,30.81
2022-08-17T16:23:20.114Z,30.78
2022-08-17T16:25:51.992Z,30.57
2022-08-17T16:27:50.491Z,30.46
2022-08-17T16:30:05.833Z,30.31
2022-08-17T16:32:31.685Z,30.11
2022-08-17T16:34:37.444Z,29.87
2022-08-17T16:36:55.093Z,29.77
2022-08-17T16:39:11.673Z,29.56
2022-08-17T16:41:25.223Z,29.41
2022-08-17T16:43:43.308Z,29.23
2022-08-17T16:45:58.938Z,29.06
2022-08-17T16:48:11.977Z,28.85
2022-08-17T16:50:27.602Z,28.70
2022-08-17T16:52:43.139Z,28.60
2022-08-17T16:54:57.727Z,28.51
2022-08-17T16:57:11.290Z,28.40
2022-08-17T16:59:31.071Z,28.31
2022-08-17T17:00:25.871Z,28.28
2022-08-17T17:02:40.478Z,28.25
2022-08-17T17:04:54.074Z,28.19
2022-08-17T17:07:07.157Z,28.19
2022-08-17T17:09:20.740Z,28.16
2022-08-17T17:11:36.349Z,28.09
2022-08-17T17:13:51.968Z,28.03
2022-08-17T17:16:05.503Z,27.96
2022-08-17T17:18:17.621Z,27.92
2022-08-17T17:20:33.175Z,27.88
2022-08-17T17:22:51.255Z,27.80
2022-08-17T17:25:06.847Z,27.76
2022-08-17T17:27:22.718Z,27.70
2022-08-17T17:29:48.071Z,27.59
2022-08-17T17:30:39.221Z,27.58
2022-08-17T17:32:52.931Z,27.54
2022-08-17T17:35:08.573Z,27.50
2022-08-17T17:37:24.125Z,27.47
2022-08-17T17:39:39.762Z,27.42
2022-08-17T17:41:55.318Z,27.36
2022-08-17T17:44:08.962Z,27.28
2022-08-17T17:46:28.085Z,27.23
2022-08-17T17:48:35.626Z,27.16
2022-08-17T17:50:50.180Z,27.11
2022-08-17T17:53:03.781Z,27.06
2022-08-17T17:55:21.869Z,26.98
2022-08-17T17:57:34.963Z,26.92
2022-08-17T17:59:53.027Z,26.86
2022-08-17T18:02:05.160Z,26.80
2022-08-17T18:04:20.522Z,26.76
2022-08-17T18:06:34.281Z,26.72
2022-08-17T18:08:52.448Z,26.67
2022-08-17T18:11:07.977Z,26.59
2022-08-17T18:13:26.661Z,26.54
2022-08-17T18:15:39.131Z,26.43
2022-08-17T18:17:54.713Z,26.36
2022-08-17T18:20:10.327Z,26.27
2022-08-17T18:22:26.903Z,26.18
2022-08-17T18:24:38.976Z,26.08
2022-08-17T18:26:52.587Z,25.97
2022-08-17T18:29:08.750Z,25.89
2022-08-17T18:31:23.785Z,25.75
2022-08-17T18:33:41.849Z,25.64
2022-08-17T18:36:01.574Z,25.53
2022-08-17T18:38:19.965Z,25.43
2022-08-17T18:40:33.093Z,25.34
2022-08-17T18:42:51.229Z,25.27
2022-08-17T18:45:06.815Z,25.16
2022-08-17T18:47:22.337Z,25.09
2022-08-17T18:49:37.925Z,24.97
2022-08-17T18:51:51.662Z,24.85
2022-08-17T18:54:05.212Z,24.75
2022-08-17T18:56:18.788Z,24.63
2022-08-17T18:58:32.364Z,24.54
2022-08-17T19:00:46.545Z,24.47
2022-08-17T19:02:59.569Z,24.41
2022-08-17T19:05:15.188Z,24.34
2022-08-17T19:07:27.254Z,24.23
2022-08-17T19:09:40.829Z,24.16
2022-08-17T19:12:26.461Z,24.07
2022-08-17T19:14:34.644Z,24.00
2022-08-17T19:16:48.237Z,23.90
2022-08-17T19:19:06.298Z,23.85
2022-08-17T19:21:22.469Z,23.82
2022-08-17T19:23:38.795Z,23.75
2022-08-17T19:26:17.491Z,23.61
2022-08-17T19:27:09.446Z,23.61
2022-08-17T19:29:24.874Z,23.57
2022-08-17T19:31:39.650Z,23.49
2022-08-17T19:33:52.088Z,23.42
2022-08-17T19:36:07.654Z,23.38
2022-08-17T19:38:21.261Z,23.32
2022-08-17T19:40:52.301Z,23.26
2022-08-17T19:42:48.896Z,23.20
2022-08-17T19:45:01.983Z,23.14
2022-08-17T19:47:19.549Z,23.11
2022-08-17T19:49:34.449Z,23.04
2022-08-17T19:50:27.159Z,23.02
2022-08-17T19:52:39.746Z,22.99
2022-08-17T19:54:53.348Z,22.94
2022-08-17T19:57:06.910Z,22.90
2022-08-17T19:59:18.979Z,22.84
2022-08-17T20:01:34.543Z,22.83
2022-08-17T20:06:00.930Z,22.77
2022-08-17T20:06:34.270Z,22.71
2022-08-17T20:08:45.353Z,22.71
2022-08-17T20:10:58.486Z,22.69
2022-08-17T20:13:10.523Z,22.68
2022-08-17T20:15:22.616Z,22.64
2022-08-17T20:17:34.686Z,22.64
2022-08-17T20:19:46.779Z,22.64
2022-08-17T20:22:52.507Z,22.65
2022-08-17T20:23:39.385Z,22.65
2022-08-17T20:25:51.461Z,22.68
2022-08-17T20:28:06.317Z,22.67
2022-08-17T20:30:17.139Z,22.65
2022-08-17T20:32:30.709Z,22.64
2022-08-17T20:34:44.292Z,22.65
2022-08-17T20:36:57.991Z,22.64
2022-08-17T20:39:11.009Z,22.57
2022-08-17T20:41:29.058Z,22.54
2022-08-17T20:43:47.148Z,22.49
2022-08-17T20:45:59.235Z,22.46
2022-08-17T20:48:37.028Z,22.44
2022-08-17T20:50:30.478Z,22.50
2022-08-17T20:52:47.050Z,22.53
2022-08-17T20:55:00.147Z,22.52
2022-08-17T20:57:14.398Z,22.50
2022-08-17T20:59:26.795Z,22.50
2022-08-17T21:01:39.079Z,22.49
2022-08-17T21:03:52.325Z,22.49
2022-08-17T21:06:04.559Z,22.57
2022-08-17T21:07:05.577Z,22.56
2022-08-17T21:09:16.629Z,22.54
2022-08-17T21:11:56.882Z,22.52
2022-08-17T21:13:42.281Z,22.53
2022-08-17T21:15:54.365Z,22.52
2022-08-17T21:18:06.476Z,22.49
2022-08-17T21:20:20.029Z,22.46
2022-08-17T21:22:33.111Z,22.39
2022-08-17T21:24:46.750Z,22.41
2022-08-17T21:27:00.634Z,22.39
2022-08-17T21:29:30.387Z,22.37
2022-08-17T21:30:13.349Z,22.34
2022-08-17T21:32:25.296Z,22.35
2022-08-17T21:34:36.540Z,22.31
2022-08-17T21:36:48.592Z,22.28
2022-08-17T21:39:00.657Z,22.29
2022-08-17T21:41:14.256Z,22.31
2022-08-17T21:43:26.350Z,22.34
2022-08-17T21:45:39.009Z,22.38
2022-08-17T21:47:52.295Z,22.39
2022-08-17T21:50:04.117Z,22.41
2022-08-17T21:52:18.520Z,22.44
2022-08-17T21:54:29.791Z,22.47
2022-08-17T21:56:41.904Z,22.46
2022-08-17T21:58:55.501Z,22.46
2022-08-17T22:01:08.593Z,22.46
2022-08-17T22:03:22.124Z,22.46
2022-08-17T22:05:35.200Z,22.44
2022-08-17T22:07:48.310Z,22.43
2022-08-17T22:10:00.364Z,22.41
2022-08-17T22:12:12.476Z,22.35
2022-08-17T22:14:24.535Z,22.34
2022-08-17T22:16:36.605Z,22.28
2022-08-17T22:18:50.226Z,22.25
2022-08-17T22:21:02.296Z,22.23
2022-08-17T22:23:15.364Z,22.22
2022-08-17T22:25:29.043Z,22.25
2022-08-17T22:27:42.008Z,22.28
2022-08-17T22:29:57.413Z,22.27
2022-08-17T22:32:06.164Z,22.22
2022-08-17T22:34:23.399Z,22.20
2022-08-17T22:36:30.347Z,22.19
2022-08-17T22:38:43.666Z,22.19
2022-08-17T22:40:56.506Z,22.17
2022-08-17T22:43:10.520Z,22.19
2022-08-17T22:45:21.654Z,22.17
2022-08-17T22:47:35.251Z,22.17
2022-08-17T22:49:53.226Z,22.14
2022-08-17T22:52:00.959Z,22.14
2022-08-17T22:54:12.996Z,22.13
2022-08-17T22:56:25.090Z,22.12
2022-08-17T22:58:37.175Z,22.10
2022-08-17T23:00:51.070Z,22.09
2022-08-17T23:03:02.515Z,22.06
2022-08-17T23:05:14.472Z,22.04
2022-08-17T23:07:28.032Z,22.02
2022-08-17T23:09:41.131Z,22.02
2022-08-17T23:11:54.198Z,21.99
2022-08-17T23:14:07.306Z,21.99
2022-08-17T23:16:20.369Z,21.98
2022-08-17T23:18:35.958Z,21.94
2022-08-17T23:20:49.020Z,21.91
2022-08-17T23:23:02.650Z,21.90
2022-08-17T23:25:15.737Z,21.83
2022-08-17T23:27:27.835Z,21.82
2022-08-17T23:29:41.875Z,21.79
2022-08-17T23:31:53.464Z,21.76
2022-08-17T23:34:09.125Z,21.75
2022-08-17T23:36:21.177Z,21.74
2022-08-17T23:38:33.247Z,21.71
2022-08-17T23:40:46.844Z,21.71
2022-08-17T23:43:00.447Z,21.67
2022-08-17T23:45:13.535Z,21.71
2022-08-17T23:47:25.643Z,21.67
2022-08-17T23:49:38.680Z,21.72
2022-08-17T23:51:52.271Z,21.75
2022-08-17T23:54:07.882Z,21.74
2022-08-17T23:56:17.954Z,21.71
2022-08-17T23:58:30.056Z,21.67
